sensor_id;sensor_type;location;lat;lon;timestamp;P1;durP1;ratioP1;P2;durP2;ratioP2
21352;SDS011;10834;52.268;6.770;2022-08-05T00:00:35;1.45;;;1.35;;
21352;SDS011;10834;52.268;6.770;2022-08-05T00:03:21;1.42;;;1.33;;
21352;SDS011;10834;52.268;6.770;2022-08-05T00:06:07;1.60;;;1.50;;
21352;SDS011;10834;52.268;6.770;2022-08-05T00:08:54;1.77;;;1.67;;
21352;SDS011;10834;52.268;6.770;2022-08-05T00:11:40;1.80;;;1.70;;
21352;SDS011;10834;52.268;6.770;2022-08-05T00:14:26;2.05;;;1.48;;
21352;SDS011;10834;52.268;6.770;2022-08-05T00:17:12;1.85;;;1.50;;
21352;SDS011;10834;52.268;6.770;2022-08-05T00:19:58;1.92;;;1.58;;
21352;SDS011;10834;52.268;6.770;2022-08-05T00:22:44;1.80;;;1.35;;
21352;SDS011;10834;52.268;6.770;2022-08-05T00:25:30;1.90;;;1.67;;
21352;SDS011;10834;52.268;6.770;2022-08-05T00:28:16;1.70;;;1.60;;
21352;SDS011;10834;52.268;6.770;2022-08-05T00:31:03;1.40;;;1.30;;
21352;SDS011;10834;52.268;6.770;2022-08-05T00:33:49;1.80;;;1.70;;
21352;SDS011;10834;52.268;6.770;2022-08-05T00:36:35;1.60;;;1.50;;
21352;SDS011;10834;52.268;6.770;2022-08-05T00:39:21;1.50;;;1.40;;
21352;SDS011;10834;52.268;6.770;2022-08-05T00:42:08;2.85;;;1.67;;
21352;SDS011;10834;52.268;6.770;2022-08-05T00:44:54;2.30;;;1.55;;
21352;SDS011;10834;52.268;6.770;2022-08-05T00:47:40;1.27;;;1.17;;
21352;SDS011;10834;52.268;6.770;2022-08-05T00:50:26;1.40;;;1.30;;
21352;SDS011;10834;52.268;6.770;2022-08-05T00:53:13;1.90;;;1.60;;
21352;SDS011;10834;52.268;6.770;2022-08-05T00:56:01;1.70;;;1.60;;
21352;SDS011;10834;52.268;6.770;2022-08-05T00:58:47;1.50;;;1.40;;
21352;SDS011;10834;52.268;6.770;2022-08-05T01:01:33;1.60;;;1.50;;
21352;SDS011;10834;52.268;6.770;2022-08-05T01:04:20;1.70;;;1.60;;
21352;SDS011;10834;52.268;6.770;2022-08-05T01:07:06;1.23;;;1.13;;
21352;SDS011;10834;52.268;6.770;2022-08-05T01:09:52;2.22;;;1.48;;
21352;SDS011;10834;52.268;6.770;2022-08-05T01:12:38;1.92;;;1.50;;
21352;SDS011;10834;52.268;6.770;2022-08-05T01:15:33;2.55;;;1.40;;
21352;SDS011;10834;52.268;6.770;2022-08-05T01:18:28;1.85;;;1.30;;
21352;SDS011;10834;52.268;6.770;2022-08-05T01:30:56;2.55;;;1.52;;
21352;SDS011;10834;52.268;6.770;2022-08-05T01:33:49;1.50;;;1.40;;
21352;SDS011;10834;52.268;6.770;2022-08-05T01:36:43;1.73;;;1.48;;
21352;SDS011;10834;52.268;6.770;2022-08-05T01:39:35;1.33;;;1.23;;
21352;SDS011;10834;52.268;6.770;2022-08-05T01:42:23;1.70;;;1.23;;
21352;SDS011;10834;52.268;6.770;2022-08-05T01:45:12;1.55;;;1.42;;
21352;SDS011;10834;52.268;6.770;2022-08-05T01:48:00;3.17;;;1.60;;
21352;SDS011;10834;52.268;6.770;2022-08-05T01:50:48;1.70;;;1.40;;
21352;SDS011;10834;52.268;6.770;2022-08-05T01:53:36;1.55;;;1.45;;
21352;SDS011;10834;52.268;6.770;2022-08-05T01:56:25;3.10;;;1.75;;
21352;SDS011;10834;52.268;6.770;2022-08-05T01:59:18;1.50;;;1.40;;
21352;SDS011;10834;52.268;6.770;2022-08-05T02:02:07;1.60;;;1.50;;
21352;SDS011;10834;52.268;6.770;2022-08-05T02:04:56;1.42;;;1.33;;
21352;SDS011;10834;52.268;6.770;2022-08-05T02:07:50;1.67;;;1.17;;
21352;SDS011;10834;52.268;6.770;2022-08-05T02:10:40;1.55;;;1.45;;
21352;SDS011;10834;52.268;6.770;2022-08-05T02:13:34;1.85;;;1.75;;
21352;SDS011;10834;52.268;6.770;2022-08-05T02:17:02;1.20;;;1.05;;
21352;SDS011;10834;52.268;6.770;2022-08-05T02:19:49;1.90;;;1.30;;
21352;SDS011;10834;52.268;6.770;2022-08-05T02:22:41;1.50;;;1.40;;
21352;SDS011;10834;52.268;6.770;2022-08-05T02:25:35;1.48;;;1.33;;
21352;SDS011;10834;52.268;6.770;2022-08-05T02:28:25;1.10;;;1.10;;
21352;SDS011;10834;52.268;6.770;2022-08-05T02:31:14;1.83;;;1.38;;
21352;SDS011;10834;52.268;6.770;2022-08-05T02:34:06;1.58;;;1.48;;
21352;SDS011;10834;52.268;6.770;2022-08-05T02:36:56;1.42;;;1.33;;
21352;SDS011;10834;52.268;6.770;2022-08-05T02:39:45;1.65;;;1.50;;
21352;SDS011;10834;52.268;6.770;2022-08-05T02:42:32;1.50;;;1.40;;
21352;SDS011;10834;52.268;6.770;2022-08-05T02:45:20;1.50;;;1.40;;
21352;SDS011;10834;52.268;6.770;2022-08-05T02:48:08;1.75;;;1.50;;
21352;SDS011;10834;52.268;6.770;2022-08-05T02:51:01;1.23;;;1.10;;
21352;SDS011;10834;52.268;6.770;2022-08-05T02:53:48;1.20;;;1.10;;
21352;SDS011;10834;52.268;6.770;2022-08-05T02:56:35;1.55;;;1.45;;
21352;SDS011;10834;52.268;6.770;2022-08-05T02:59:21;1.30;;;1.20;;
21352;SDS011;10834;52.268;6.770;2022-08-05T03:02:09;1.70;;;1.48;;
21352;SDS011;10834;52.268;6.770;2022-08-05T03:04:57;1.73;;;1.10;;
21352;SDS011;10834;52.268;6.770;2022-08-05T03:07:44;1.52;;;1.35;;
21352;SDS011;10834;52.268;6.770;2022-08-05T03:10:30;1.25;;;1.20;;
21352;SDS011;10834;52.268;6.770;2022-08-05T03:13:17;2.47;;;1.30;;
21352;SDS011;10834;52.268;6.770;2022-08-05T03:16:03;1.50;;;1.30;;
21352;SDS011;10834;52.268;6.770;2022-08-05T03:18:49;2.28;;;1.40;;
21352;SDS011;10834;52.268;6.770;2022-08-05T03:21:35;1.08;;;1.08;;
21352;SDS011;10834;52.268;6.770;2022-08-05T03:24:21;1.35;;;1.25;;
21352;SDS011;10834;52.268;6.770;2022-08-05T03:27:08;1.60;;;1.35;;
21352;SDS011;10834;52.268;6.770;2022-08-05T03:29:54;1.55;;;1.30;;
21352;SDS011;10834;52.268;6.770;2022-08-05T03:32:40;1.30;;;1.20;;
21352;SDS011;10834;52.268;6.770;2022-08-05T03:35:28;1.52;;;1.38;;
21352;SDS011;10834;52.268;6.770;2022-08-05T03:38:14;1.60;;;1.30;;
21352;SDS011;10834;52.268;6.770;2022-08-05T03:41:01;1.70;;;1.60;;
21352;SDS011;10834;52.268;6.770;2022-08-05T03:43:47;1.55;;;1.45;;
21352;SDS011;10834;52.268;6.770;2022-08-05T03:46:34;1.60;;;1.50;;
21352;SDS011;10834;52.268;6.770;2022-08-05T03:49:20;1.40;;;1.30;;
21352;SDS011;10834;52.268;6.770;2022-08-05T03:52:08;1.40;;;1.27;;
21352;SDS011;10834;52.268;6.770;2022-08-05T03:54:57;1.88;;;1.38;;
21352;SDS011;10834;52.268;6.770;2022-08-05T03:57:47;2.58;;;1.45;;
21352;SDS011;10834;52.268;6.770;2022-08-05T04:00:37;1.45;;;1.30;;
21352;SDS011;10834;52.268;6.770;2022-08-05T04:03:25;1.73;;;1.63;;
21352;SDS011;10834;52.268;6.770;2022-08-05T04:06:13;1.73;;;1.60;;
21352;SDS011;10834;52.268;6.770;2022-08-05T04:09:02;1.38;;;1.17;;
21352;SDS011;10834;52.268;6.770;2022-08-05T04:11:50;1.35;;;1.25;;
21352;SDS011;10834;52.268;6.770;2022-08-05T04:14:36;1.52;;;1.42;;
21352;SDS011;10834;52.268;6.770;2022-08-05T04:17:22;1.58;;;1.48;;
21352;SDS011;10834;52.268;6.770;2022-08-05T04:20:16;1.42;;;1.38;;
21352;SDS011;10834;52.268;6.770;2022-08-05T04:23:03;1.40;;;1.30;;
21352;SDS011;10834;52.268;6.770;2022-08-05T04:25:49;1.65;;;1.40;;
21352;SDS011;10834;52.268;6.770;2022-08-05T04:28:36;2.88;;;1.70;;
21352;SDS011;10834;52.268;6.770;2022-08-05T04:31:22;1.63;;;1.52;;
21352;SDS011;10834;52.268;6.770;2022-08-05T04:34:08;1.80;;;1.70;;
21352;SDS011;10834;52.268;6.770;2022-08-05T04:36:54;1.25;;;1.15;;
21352;SDS011;10834;52.268;6.770;2022-08-05T04:39:40;1.63;;;1.52;;
21352;SDS011;10834;52.268;6.770;2022-08-05T04:42:26;1.25;;;1.23;;
21352;SDS011;10834;52.268;6.770;2022-08-05T04:45:12;1.40;;;1.30;;
21352;SDS011;10834;52.268;6.770;2022-08-05T04:48:11;2.10;;;1.33;;
21352;SDS011;10834;52.268;6.770;2022-08-05T04:50:58;1.10;;;1.10;;
21352;SDS011;10834;52.268;6.770;2022-08-05T04:53:44;1.48;;;1.38;;
21352;SDS011;10834;52.268;6.770;2022-08-05T04:56:30;1.30;;;1.20;;
21352;SDS011;10834;52.268;6.770;2022-08-05T04:59:16;1.60;;;1.45;;
21352;SDS011;10834;52.268;6.770;2022-08-05T05:02:02;1.23;;;1.13;;
21352;SDS011;10834;52.268;6.770;2022-08-05T05:04:48;1.20;;;1.10;;
21352;SDS011;10834;52.268;6.770;2022-08-05T05:07:34;1.63;;;1.38;;
21352;SDS011;10834;52.268;6.770;2022-08-05T05:10:20;1.85;;;1.67;;
21352;SDS011;10834;52.268;6.770;2022-08-05T05:13:10;1.25;;;1.15;;
21352;SDS011;10834;52.268;6.770;2022-08-05T05:15:58;2.25;;;1.25;;
21352;SDS011;10834;52.268;6.770;2022-08-05T05:18:44;1.40;;;1.30;;
21352;SDS011;10834;52.268;6.770;2022-08-05T05:21:30;1.67;;;1.30;;
21352;SDS011;10834;52.268;6.770;2022-08-05T05:24:16;1.60;;;1.50;;
21352;SDS011;10834;52.268;6.770;2022-08-05T05:27:03;1.35;;;1.25;;
21352;SDS011;10834;52.268;6.770;2022-08-05T05:29:49;1.67;;;1.50;;
21352;SDS011;10834;52.268;6.770;2022-08-05T05:32:36;1.30;;;1.30;;
21352;SDS011;10834;52.268;6.770;2022-08-05T05:35:22;1.60;;;1.50;;
21352;SDS011;10834;52.268;6.770;2022-08-05T05:38:08;1.17;;;1.08;;
21352;SDS011;10834;52.268;6.770;2022-08-05T05:40:54;1.55;;;1.45;;
21352;SDS011;10834;52.268;6.770;2022-08-05T05:43:41;1.73;;;1.63;;
21352;SDS011;10834;52.268;6.770;2022-08-05T05:46:27;1.40;;;1.30;;
21352;SDS011;10834;52.268;6.770;2022-08-05T05:49:13;1.40;;;1.30;;
21352;SDS011;10834;52.268;6.770;2022-08-05T05:51:59;1.60;;;1.10;;
21352;SDS011;10834;52.268;6.770;2022-08-05T05:54:46;1.35;;;1.10;;
21352;SDS011;10834;52.268;6.770;2022-08-05T05:57:32;1.75;;;1.40;;
21352;SDS011;10834;52.268;6.770;2022-08-05T06:00:19;1.33;;;1.23;;
21352;SDS011;10834;52.268;6.770;2022-08-05T06:03:06;0.90;;;0.90;;
21352;SDS011;10834;52.268;6.770;2022-08-05T06:05:54;1.73;;;1.27;;
21352;SDS011;10834;52.268;6.770;2022-08-05T06:08:40;2.28;;;1.63;;
21352;SDS011;10834;52.268;6.770;2022-08-05T06:11:26;1.33;;;1.23;;
21352;SDS011;10834;52.268;6.770;2022-08-05T06:14:12;1.67;;;1.58;;
21352;SDS011;10834;52.268;6.770;2022-08-05T06:16:58;1.58;;;1.48;;
21352;SDS011;10834;52.268;6.770;2022-08-05T06:19:45;1.50;;;1.40;;
21352;SDS011;10834;52.268;6.770;2022-08-05T06:22:32;2.05;;;1.50;;
21352;SDS011;10834;52.268;6.770;2022-08-05T06:25:19;1.83;;;1.73;;
21352;SDS011;10834;52.268;6.770;2022-08-05T06:28:05;1.23;;;1.20;;
21352;SDS011;10834;52.268;6.770;2022-08-05T06:30:51;1.20;;;1.10;;
21352;SDS011;10834;52.268;6.770;2022-08-05T06:33:37;2.28;;;1.42;;
21352;SDS011;10834;52.268;6.770;2022-08-05T06:36:23;1.42;;;1.33;;
21352;SDS011;10834;52.268;6.770;2022-08-05T06:39:09;1.35;;;1.27;;
21352;SDS011;10834;52.268;6.770;2022-08-05T06:41:56;1.42;;;1.33;;
21352;SDS011;10834;52.268;6.770;2022-08-05T06:44:46;1.65;;;1.20;;
21352;SDS011;10834;52.268;6.770;2022-08-05T06:47:32;1.55;;;1.45;;
21352;SDS011;10834;52.268;6.770;2022-08-05T06:50:18;1.73;;;1.38;;
21352;SDS011;10834;52.268;6.770;2022-08-05T06:53:04;1.55;;;1.45;;
21352;SDS011;10834;52.268;6.770;2022-08-05T06:55:50;1.58;;;1.48;;
21352;SDS011;10834;52.268;6.770;2022-08-05T06:58:36;3.05;;;1.55;;
21352;SDS011;10834;52.268;6.770;2022-08-05T07:01:22;2.60;;;1.42;;
21352;SDS011;10834;52.268;6.770;2022-08-05T07:04:09;1.20;;;1.10;;
21352;SDS011;10834;52.268;6.770;2022-08-05T07:06:55;1.40;;;1.30;;
21352;SDS011;10834;52.268;6.770;2022-08-05T07:09:41;1.67;;;1.58;;
21352;SDS011;10834;52.268;6.770;2022-08-05T07:12:27;1.10;;;1.00;;
21352;SDS011;10834;52.268;6.770;2022-08-05T07:15:32;1.55;;;1.45;;
21352;SDS011;10834;52.268;6.770;2022-08-05T07:18:36;1.70;;;1.60;;
21352;SDS011;10834;52.268;6.770;2022-08-05T07:21:22;1.90;;;1.80;;
21352;SDS011;10834;52.268;6.770;2022-08-05T07:24:08;1.40;;;1.30;;
21352;SDS011;10834;52.268;6.770;2022-08-05T07:26:54;1.45;;;1.35;;
21352;SDS011;10834;52.268;6.770;2022-08-05T07:29:41;1.73;;;1.63;;
21352;SDS011;10834;52.268;6.770;2022-08-05T07:32:28;1.67;;;1.50;;
21352;SDS011;10834;52.268;6.770;2022-08-05T07:35:20;1.55;;;1.30;;
21352;SDS011;10834;52.268;6.770;2022-08-05T07:38:06;2.10;;;1.50;;
21352;SDS011;10834;52.268;6.770;2022-08-05T07:40:52;1.80;;;1.70;;
21352;SDS011;10834;52.268;6.770;2022-08-05T07:43:38;6.07;;;2.35;;
21352;SDS011;10834;52.268;6.770;2022-08-05T07:46:25;3.72;;;2.95;;
21352;SDS011;10834;52.268;6.770;2022-08-05T07:49:13;3.75;;;2.47;;
21352;SDS011;10834;52.268;6.770;2022-08-05T07:51:59;3.92;;;2.90;;
21352;SDS011;10834;52.268;6.770;2022-08-05T07:54:45;2.95;;;2.53;;
21352;SDS011;10834;52.268;6.770;2022-08-05T07:57:32;7.13;;;3.40;;
21352;SDS011;10834;52.268;6.770;2022-08-05T08:00:18;3.80;;;2.85;;
21352;SDS011;10834;52.268;6.770;2022-08-05T08:03:08;3.70;;;3.40;;
21352;SDS011;10834;52.268;6.770;2022-08-05T08:05:57;5.97;;;3.38;;
21352;SDS011;10834;52.268;6.770;2022-08-05T08:08:44;5.13;;;3.38;;
21352;SDS011;10834;52.268;6.770;2022-08-05T08:11:30;3.38;;;2.78;;
21352;SDS011;10834;52.268;6.770;2022-08-05T08:14:17;3.88;;;2.72;;
21352;SDS011;10834;52.268;6.770;2022-08-05T08:17:03;3.58;;;2.60;;
21352;SDS011;10834;52.268;6.770;2022-08-05T08:19:49;2.65;;;2.45;;
21352;SDS011;10834;52.268;6.770;2022-08-05T08:22:35;4.32;;;3.00;;
21352;SDS011;10834;52.268;6.770;2022-08-05T08:25:22;5.38;;;2.78;;
21352;SDS011;10834;52.268;6.770;2022-08-05T08:28:08;3.42;;;2.85;;
21352;SDS011;10834;52.268;6.770;2022-08-05T08:30:54;3.00;;;2.75;;
21352;SDS011;10834;52.268;6.770;2022-08-05T08:33:40;3.38;;;2.58;;
21352;SDS011;10834;52.268;6.770;2022-08-05T08:36:26;3.05;;;2.38;;
21352;SDS011;10834;52.268;6.770;2022-08-05T08:39:12;3.47;;;2.45;;
21352;SDS011;10834;52.268;6.770;2022-08-05T08:41:59;4.30;;;2.75;;
21352;SDS011;10834;52.268;6.770;2022-08-05T08:44:46;5.32;;;2.72;;
21352;SDS011;10834;52.268;6.770;2022-08-05T08:47:33;2.55;;;2.35;;
21352;SDS011;10834;52.268;6.770;2022-08-05T08:50:20;3.42;;;3.13;;
21352;SDS011;10834;52.268;6.770;2022-08-05T08:53:09;3.22;;;2.42;;
21352;SDS011;10834;52.268;6.770;2022-08-05T08:55:58;2.75;;;2.30;;
21352;SDS011;10834;52.268;6.770;2022-08-05T08:58:46;2.38;;;1.90;;
21352;SDS011;10834;52.268;6.770;2022-08-05T09:01:32;2.80;;;2.22;;
21352;SDS011;10834;52.268;6.770;2022-08-05T09:04:18;2.65;;;2.45;;
21352;SDS011;10834;52.268;6.770;2022-08-05T09:07:05;2.50;;;2.30;;
21352;SDS011;10834;52.268;6.770;2022-08-05T09:09:51;2.55;;;2.35;;
21352;SDS011;10834;52.268;6.770;2022-08-05T09:12:37;2.75;;;2.55;;
21352;SDS011;10834;52.268;6.770;2022-08-05T09:15:24;3.03;;;2.05;;
21352;SDS011;10834;52.268;6.770;2022-08-05T09:18:10;3.17;;;2.92;;
21352;SDS011;10834;52.268;6.770;2022-08-05T09:20:56;2.88;;;2.35;;
21352;SDS011;10834;52.268;6.770;2022-08-05T09:23:43;2.90;;;2.53;;
21352;SDS011;10834;52.268;6.770;2022-08-05T09:26:30;3.38;;;2.40;;
21352;SDS011;10834;52.268;6.770;2022-08-05T09:29:16;2.80;;;2.50;;
21352;SDS011;10834;52.268;6.770;2022-08-05T09:32:04;2.63;;;2.42;;
21352;SDS011;10834;52.268;6.770;2022-08-05T09:34:52;2.55;;;2.35;;
21352;SDS011;10834;52.268;6.770;2022-08-05T09:37:50;2.30;;;2.10;;
21352;SDS011;10834;52.268;6.770;2022-08-05T09:40:39;2.88;;;2.30;;
21352;SDS011;10834;52.268;6.770;2022-08-05T09:46:26;3.28;;;2.47;;
21352;SDS011;10834;52.268;6.770;2022-08-05T09:49:21;3.38;;;2.30;;
21352;SDS011;10834;52.268;6.770;2022-08-05T09:52:18;2.70;;;2.50;;
21352;SDS011;10834;52.268;6.770;2022-08-05T09:55:09;3.40;;;2.33;;
21352;SDS011;10834;52.268;6.770;2022-08-05T09:57:57;3.05;;;2.60;;
21352;SDS011;10834;52.268;6.770;2022-08-05T10:00:51;2.53;;;2.25;;
21352;SDS011;10834;52.268;6.770;2022-08-05T10:03:37;6.30;;;2.78;;
21352;SDS011;10834;52.268;6.770;2022-08-05T10:06:23;1.90;;;1.67;;
21352;SDS011;10834;52.268;6.770;2022-08-05T10:09:12;2.15;;;2.05;;
21352;SDS011;10834;52.268;6.770;2022-08-05T10:12:06;4.50;;;2.40;;
21352;SDS011;10834;52.268;6.770;2022-08-05T10:15:11;2.05;;;1.88;;
21352;SDS011;10834;52.268;6.770;2022-08-05T10:20:53;2.45;;;2.08;;
21352;SDS011;10834;52.268;6.770;2022-08-05T10:23:41;3.15;;;2.00;;
21352;SDS011;10834;52.268;6.770;2022-08-05T10:26:27;2.00;;;1.60;;
21352;SDS011;10834;52.268;6.770;2022-08-05T10:29:13;2.33;;;2.13;;
21352;SDS011;10834;52.268;6.770;2022-08-05T10:32:00;2.70;;;2.17;;
21352;SDS011;10834;52.268;6.770;2022-08-05T10:34:47;2.30;;;2.10;;
21352;SDS011;10834;52.268;6.770;2022-08-05T10:37:33;3.35;;;1.80;;
21352;SDS011;10834;52.268;6.770;2022-08-05T10:40:30;3.42;;;1.90;;
21352;SDS011;10834;52.268;6.770;2022-08-05T10:43:42;3.67;;;2.13;;
21352;SDS011;10834;52.268;6.770;2022-08-05T10:46:45;2.13;;;1.92;;
21352;SDS011;10834;52.268;6.770;2022-08-05T10:49:58;2.38;;;2.10;;
21352;SDS011;10834;52.268;6.770;2022-08-05T10:52:49;1.67;;;1.52;;
21352;SDS011;10834;52.268;6.770;2022-08-05T10:56:00;1.90;;;1.80;;
21352;SDS011;10834;52.268;6.770;2022-08-05T11:01:41;2.80;;;1.67;;
21352;SDS011;10834;52.268;6.770;2022-08-05T11:04:28;1.90;;;1.70;;
21352;SDS011;10834;52.268;6.770;2022-08-05T11:07:14;2.88;;;1.88;;
21352;SDS011;10834;52.268;6.770;2022-08-05T11:10:03;1.70;;;1.35;;
21352;SDS011;10834;52.268;6.770;2022-08-05T11:12:49;2.38;;;1.45;;
21352;SDS011;10834;52.268;6.770;2022-08-05T11:15:36;2.00;;;1.63;;
21352;SDS011;10834;52.268;6.770;2022-08-05T11:18:28;1.77;;;1.25;;
21352;SDS011;10834;52.268;6.770;2022-08-05T11:21:29;1.70;;;1.20;;
21352;SDS011;10834;52.268;6.770;2022-08-05T11:24:16;3.08;;;1.25;;
21352;SDS011;10834;52.268;6.770;2022-08-05T11:30:16;1.70;;;1.48;;
21352;SDS011;10834;52.268;6.770;2022-08-05T11:36:10;1.20;;;1.10;;
21352;SDS011;10834;52.268;6.770;2022-08-05T11:38:58;1.10;;;1.10;;
21352;SDS011;10834;52.268;6.770;2022-08-05T11:41:53;1.00;;;1.00;;
21352;SDS011;10834;52.268;6.770;2022-08-05T11:44:42;1.83;;;1.15;;
21352;SDS011;10834;52.268;6.770;2022-08-05T11:47:29;2.00;;;0.80;;
21352;SDS011;10834;52.268;6.770;2022-08-05T11:50:17;1.50;;;1.00;;
21352;SDS011;10834;52.268;6.770;2022-08-05T11:53:04;2.75;;;1.02;;
21352;SDS011;10834;52.268;6.770;2022-08-05T11:55:54;1.40;;;1.30;;
21352;SDS011;10834;52.268;6.770;2022-08-05T11:58:42;1.75;;;1.15;;
21352;SDS011;10834;52.268;6.770;2022-08-05T12:01:30;1.05;;;0.95;;
21352;SDS011;10834;52.268;6.770;2022-08-05T12:04:16;2.33;;;1.05;;
21352;SDS011;10834;52.268;6.770;2022-08-05T12:07:02;2.22;;;0.73;;
21352;SDS011;10834;52.268;6.770;2022-08-05T12:09:52;0.77;;;0.77;;
21352;SDS011;10834;52.268;6.770;2022-08-05T12:12:39;0.82;;;0.60;;
21352;SDS011;10834;52.268;6.770;2022-08-05T12:15:25;1.15;;;1.05;;
21352;SDS011;10834;52.268;6.770;2022-08-05T12:18:16;1.02;;;0.90;;
21352;SDS011;10834;52.268;6.770;2022-08-05T12:21:09;2.08;;;0.95;;
21352;SDS011;10834;52.268;6.770;2022-08-05T12:26:49;0.80;;;0.80;;
21352;SDS011;10834;52.268;6.770;2022-08-05T12:29:36;0.93;;;0.75;;
21352;SDS011;10834;52.268;6.770;2022-08-05T12:32:23;1.10;;;0.77;;
21352;SDS011;10834;52.268;6.770;2022-08-05T12:35:09;0.88;;;0.88;;
21352;SDS011;10834;52.268;6.770;2022-08-05T12:37:55;0.70;;;0.70;;
21352;SDS011;10834;52.268;6.770;2022-08-05T12:40:41;0.70;;;0.65;;
21352;SDS011;10834;52.268;6.770;2022-08-05T12:43:27;1.75;;;0.70;;
21352;SDS011;10834;52.268;6.770;2022-08-05T12:46:51;0.50;;;0.50;;
21352;SDS011;10834;52.268;6.770;2022-08-05T12:49:37;0.60;;;0.60;;
21352;SDS011;10834;52.268;6.770;2022-08-05T12:52:24;2.30;;;0.70;;
21352;SDS011;10834;52.268;6.770;2022-08-05T12:58:07;0.63;;;0.60;;
21352;SDS011;10834;52.268;6.770;2022-08-05T13:00:53;0.68;;;0.68;;
21352;SDS011;10834;52.268;6.770;2022-08-05T13:03:39;0.50;;;0.50;;
21352;SDS011;10834;52.268;6.770;2022-08-05T13:06:25;1.00;;;0.60;;
21352;SDS011;10834;52.268;6.770;2022-08-05T13:09:12;0.60;;;0.60;;
21352;SDS011;10834;52.268;6.770;2022-08-05T13:12:06;0.50;;;0.50;;
21352;SDS011;10834;52.268;6.770;2022-08-05T13:14:58;0.85;;;0.60;;
21352;SDS011;10834;52.268;6.770;2022-08-05T13:17:52;0.43;;;0.40;;
21352;SDS011;10834;52.268;6.770;2022-08-05T13:20:39;1.17;;;0.68;;
21352;SDS011;10834;52.268;6.770;2022-08-05T13:23:25;0.85;;;0.45;;
21352;SDS011;10834;52.268;6.770;2022-08-05T13:26:11;1.17;;;0.80;;
21352;SDS011;10834;52.268;6.770;2022-08-05T13:28:57;1.52;;;0.95;;
21352;SDS011;10834;52.268;6.770;2022-08-05T13:31:43;0.38;;;0.38;;
21352;SDS011;10834;52.268;6.770;2022-08-05T13:34:29;1.05;;;0.60;;
21352;SDS011;10834;52.268;6.770;2022-08-05T13:37:19;1.23;;;0.63;;
21352;SDS011;10834;52.268;6.770;2022-08-05T13:40:06;0.60;;;0.60;;
21352;SDS011;10834;52.268;6.770;2022-08-05T13:42:53;1.63;;;0.77;;
21352;SDS011;10834;52.268;6.770;2022-08-05T13:45:39;0.95;;;0.40;;
21352;SDS011;10834;52.268;6.770;2022-08-05T13:48:25;0.65;;;0.65;;
21352;SDS011;10834;52.268;6.770;2022-08-05T13:51:12;1.30;;;0.70;;
21352;SDS011;10834;52.268;6.770;2022-08-05T13:53:58;0.82;;;0.50;;
21352;SDS011;10834;52.268;6.770;2022-08-05T13:56:44;1.02;;;0.40;;
21352;SDS011;10834;52.268;6.770;2022-08-05T13:59:30;1.67;;;0.50;;
21352;SDS011;10834;52.268;6.770;2022-08-05T14:02:17;1.10;;;0.70;;
21352;SDS011;10834;52.268;6.770;2022-08-05T14:05:03;0.50;;;0.50;;
21352;SDS011;10834;52.268;6.770;2022-08-05T14:07:55;0.60;;;0.50;;
21352;SDS011;10834;52.268;6.770;2022-08-05T14:10:41;0.50;;;0.50;;
21352;SDS011;10834;52.268;6.770;2022-08-05T14:13:28;0.50;;;0.50;;
21352;SDS011;10834;52.268;6.770;2022-08-05T14:16:14;0.40;;;0.40;;
21352;SDS011;10834;52.268;6.770;2022-08-05T14:19:00;0.65;;;0.50;;
21352;SDS011;10834;52.268;6.770;2022-08-05T14:21:46;0.40;;;0.40;;
21352;SDS011;10834;52.268;6.770;2022-08-05T14:24:32;0.32;;;0.32;;
21352;SDS011;10834;52.268;6.770;2022-08-05T14:27:18;0.90;;;0.70;;
21352;SDS011;10834;52.268;6.770;2022-08-05T14:30:04;0.50;;;0.50;;
21352;SDS011;10834;52.268;6.770;2022-08-05T14:32:51;0.77;;;0.50;;
21352;SDS011;10834;52.268;6.770;2022-08-05T14:35:37;0.40;;;0.40;;
21352;SDS011;10834;52.268;6.770;2022-08-05T14:38:23;1.30;;;0.65;;
21352;SDS011;10834;52.268;6.770;2022-08-05T14:41:09;0.68;;;0.40;;
21352;SDS011;10834;52.268;6.770;2022-08-05T14:43:55;0.40;;;0.40;;
21352;SDS011;10834;52.268;6.770;2022-08-05T14:46:42;0.50;;;0.50;;
21352;SDS011;10834;52.268;6.770;2022-08-05T14:49:28;2.53;;;0.50;;
21352;SDS011;10834;52.268;6.770;2022-08-05T14:52:14;0.60;;;0.60;;
21352;SDS011;10834;52.268;6.770;2022-08-05T14:55:00;0.55;;;0.47;;
21352;SDS011;10834;52.268;6.770;2022-08-05T14:57:46;0.68;;;0.45;;
21352;SDS011;10834;52.268;6.770;2022-08-05T15:00:32;0.45;;;0.45;;
21352;SDS011;10834;52.268;6.770;2022-08-05T15:03:18;0.70;;;0.50;;
21352;SDS011;10834;52.268;6.770;2022-08-05T15:06:05;0.45;;;0.43;;
21352;SDS011;10834;52.268;6.770;2022-08-05T15:08:51;0.63;;;0.63;;
21352;SDS011;10834;52.268;6.770;2022-08-05T15:11:39;0.40;;;0.40;;
21352;SDS011;10834;52.268;6.770;2022-08-05T15:14:25;0.60;;;0.40;;
21352;SDS011;10834;52.268;6.770;2022-08-05T15:17:11;0.50;;;0.50;;
21352;SDS011;10834;52.268;6.770;2022-08-05T15:19:57;0.40;;;0.40;;
21352;SDS011;10834;52.268;6.770;2022-08-05T15:22:43;0.55;;;0.55;;
21352;SDS011;10834;52.268;6.770;2022-08-05T15:25:29;0.57;;;0.57;;
21352;SDS011;10834;52.268;6.770;2022-08-05T15:28:15;0.40;;;0.40;;
21352;SDS011;10834;52.268;6.770;2022-08-05T15:31:01;0.35;;;0.30;;
21352;SDS011;10834;52.268;6.770;2022-08-05T15:33:48;1.15;;;0.50;;
21352;SDS011;10834;52.268;6.770;2022-08-05T15:36:34;0.47;;;0.47;;
21352;SDS011;10834;52.268;6.770;2022-08-05T15:39:20;0.45;;;0.40;;
21352;SDS011;10834;52.268;6.770;2022-08-05T15:42:06;0.65;;;0.40;;
21352;SDS011;10834;52.268;6.770;2022-08-05T15:44:52;1.17;;;0.60;;
21352;SDS011;10834;52.268;6.770;2022-08-05T15:47:39;0.47;;;0.47;;
21352;SDS011;10834;52.268;6.770;2022-08-05T15:50:26;1.23;;;0.63;;
21352;SDS011;10834;52.268;6.770;2022-08-05T15:53:13;0.47;;;0.40;;
21352;SDS011;10834;52.268;6.770;2022-08-05T15:55:59;0.40;;;0.40;;
21352;SDS011;10834;52.268;6.770;2022-08-05T15:58:45;0.40;;;0.40;;
21352;SDS011;10834;52.268;6.770;2022-08-05T16:01:32;1.17;;;0.50;;
21352;SDS011;10834;52.268;6.770;2022-08-05T16:04:18;0.95;;;0.50;;
21352;SDS011;10834;52.268;6.770;2022-08-05T16:07:04;0.80;;;0.80;;
21352;SDS011;10834;52.268;6.770;2022-08-05T16:09:50;1.35;;;0.50;;
21352;SDS011;10834;52.268;6.770;2022-08-05T16:12:36;0.45;;;0.45;;
21352;SDS011;10834;52.268;6.770;2022-08-05T16:15:22;0.43;;;0.43;;
21352;SDS011;10834;52.268;6.770;2022-08-05T16:18:08;0.70;;;0.57;;
21352;SDS011;10834;52.268;6.770;2022-08-05T16:20:56;1.20;;;0.82;;
21352;SDS011;10834;52.268;6.770;2022-08-05T16:23:44;1.00;;;1.00;;
21352;SDS011;10834;52.268;6.770;2022-08-05T16:26:30;0.70;;;0.70;;
21352;SDS011;10834;52.268;6.770;2022-08-05T16:29:16;0.70;;;0.70;;
21352;SDS011;10834;52.268;6.770;2022-08-05T16:32:03;0.93;;;0.60;;
21352;SDS011;10834;52.268;6.770;2022-08-05T16:34:50;0.63;;;0.63;;
21352;SDS011;10834;52.268;6.770;2022-08-05T16:37:36;0.60;;;0.60;;
21352;SDS011;10834;52.268;6.770;2022-08-05T16:40:24;0.98;;;0.60;;
21352;SDS011;10834;52.268;6.770;2022-08-05T16:43:10;0.80;;;0.80;;
21352;SDS011;10834;52.268;6.770;2022-08-05T16:45:57;1.27;;;1.17;;
21352;SDS011;10834;52.268;6.770;2022-08-05T16:48:44;2.85;;;1.10;;
21352;SDS011;10834;52.268;6.770;2022-08-05T16:51:30;0.93;;;0.90;;
21352;SDS011;10834;52.268;6.770;2022-08-05T16:54:16;1.10;;;0.95;;
21352;SDS011;10834;52.268;6.770;2022-08-05T16:57:02;0.82;;;0.82;;
21352;SDS011;10834;52.268;6.770;2022-08-05T16:59:49;0.95;;;0.93;;
21352;SDS011;10834;52.268;6.770;2022-08-05T17:02:36;1.48;;;1.13;;
21352;SDS011;10834;52.268;6.770;2022-08-05T17:05:22;1.08;;;1.00;;
21352;SDS011;10834;52.268;6.770;2022-08-05T17:08:08;0.90;;;0.90;;
21352;SDS011;10834;52.268;6.770;2022-08-05T17:10:54;0.75;;;0.75;;
21352;SDS011;10834;52.268;6.770;2022-08-05T17:13:40;1.65;;;0.90;;
21352;SDS011;10834;52.268;6.770;2022-08-05T17:16:26;1.10;;;0.80;;
21352;SDS011;10834;52.268;6.770;2022-08-05T17:19:12;0.70;;;0.70;;
21352;SDS011;10834;52.268;6.770;2022-08-05T17:21:59;1.15;;;0.70;;